Time;durP1;ratioP1;P1;durP2;ratioP2;P2;SDS_P1;SDS_P2;PMS_P1;PMS_P2;Temp;Humidity;BMP_temperature;BMP_pressure;BME280_temperature;BME280_humidity;BME280_pressure;Samples;Min_cycle;Max_cycle;Signal;HPM_P1;HPM_P2
2022/02/23 00:00:35;;;;;;;2.42;0.88;;;18.90;59.50;;;;;;5094649;28;20024;-67
2022/02/23 00:03:01;;;;;;;1.88;0.95;;;18.90;59.50;;;;;;5076437;28;20479;-67
2022/02/23 00:05:27;;;;;;;1.48;0.90;;;18.90;59.50;;;;;;5076745;28;20020;-68
2022/02/23 00:07:52;;;;;;;2.65;0.82;;;18.90;59.60;;;;;;5076236;28;20069;-68
2022/02/23 00:10:18;;;;;;;1.90;0.98;;;18.90;59.50;;;;;;5094513;28;20023;-68
2022/02/23 00:12:44;;;;;;;2.00;0.80;;;18.90;59.60;;;;;;5094440;28;20036;-68
2022/02/23 00:15:09;;;;;;;1.25;0.70;;;18.90;59.60;;;;;;5094293;28;20030;-68
2022/02/23 00:17:36;;;;;;;3.38;0.70;;;18.90;59.60;;;;;;5076296;28;20027;-68
2022/02/23 00:20:02;;;;;;;2.05;0.90;;;18.90;59.60;;;;;;5094428;28;20073;-68
2022/02/23 00:22:30;;;;;;;3.25;1.00;;;18.90;59.70;;;;;;5059164;28;20020;-68
2022/02/23 00:24:56;;;;;;;1.10;0.65;;;18.90;59.70;;;;;;5094145;28;20020;-67
2022/02/23 00:27:21;;;;;;;1.83;0.90;;;18.90;59.70;;;;;;5094162;28;20387;-68
2022/02/23 00:29:47;;;;;;;1.27;0.63;;;18.90;59.70;;;;;;5094062;28;20158;-67
2022/02/23 00:32:13;;;;;;;1.63;0.60;;;18.80;59.70;;;;;;5093433;28;20044;-67
2022/02/23 00:34:39;;;;;;;1.23;0.77;;;18.90;59.80;;;;;;5075642;28;20543;-67
2022/02/23 00:37:04;;;;;;;2.08;0.95;;;18.80;59.80;;;;;;5093574;28;20024;-67
2022/02/23 00:39:30;;;;;;;2.10;1.05;;;18.80;59.70;;;;;;5094108;28;20016;-68
2022/02/23 00:41:55;;;;;;;1.33;0.93;;;18.80;59.70;;;;;;5093906;28;20024;-68
2022/02/23 00:44:21;;;;;;;3.53;1.17;;;18.80;59.80;;;;;;5093868;28;20390;-68
2022/02/23 00:46:47;;;;;;;3.63;1.10;;;18.80;59.80;;;;;;5075606;28;20024;-68
2022/02/23 00:49:12;;;;;;;2.70;1.23;;;18.80;59.80;;;;;;5093704;28;20379;-68
2022/02/23 00:51:38;;;;;;;1.48;0.80;;;18.80;59.80;;;;;;5093092;28;20035;-68
2022/02/23 00:54:04;;;;;;;2.63;0.82;;;18.80;59.80;;;;;;5071342;28;20020;-68
2022/02/23 00:56:29;;;;;;;3.42;1.08;;;18.80;59.90;;;;;;5073176;28;20375;-68
2022/02/23 00:58:55;;;;;;;1.15;0.75;;;18.80;59.90;;;;;;5055525;28;20048;-68
2022/02/23 01:01:21;;;;;;;1.10;0.75;;;18.80;60.00;;;;;;5078117;28;20029;-68
2022/02/23 01:03:46;;;;;;;1.83;0.70;;;18.80;59.90;;;;;;5075536;28;20032;-68
2022/02/23 01:06:12;;;;;;;3.20;1.20;;;18.70;59.90;;;;;;5093123;28;20028;-68
2022/02/23 01:08:37;;;;;;;0.90;0.60;;;18.70;59.90;;;;;;5058583;28;20028;-68
2022/02/23 01:11:03;;;;;;;1.50;0.77;;;18.70;60.00;;;;;;5093425;28;20089;-68
2022/02/23 01:13:29;;;;;;;1.10;0.70;;;18.70;60.00;;;;;;5093161;28;20394;-68
2022/02/23 01:15:54;;;;;;;1.27;0.80;;;18.70;60.00;;;;;;5075114;28;20386;-68
2022/02/23 01:18:20;;;;;;;1.23;0.77;;;18.70;60.00;;;;;;5093142;28;20016;-68
2022/02/23 01:20:46;;;;;;;1.63;0.93;;;18.70;60.00;;;;;;5074698;28;20157;-68
2022/02/23 01:23:11;;;;;;;0.60;0.50;;;18.70;60.00;;;;;;5093175;28;20020;-67
2022/02/23 01:25:37;;;;;;;1.52;0.80;;;18.70;60.10;;;;;;5074874;28;20039;-67
2022/02/23 01:28:04;;;;;;;1.17;0.80;;;18.70;60.10;;;;;;5093260;28;20016;-68
2022/02/23 01:30:30;;;;;;;1.10;0.75;;;18.70;60.10;;;;;;5092891;28;20046;-68
2022/02/23 01:32:56;;;;;;;3.65;0.98;;;18.70;61.20;;;;;;5092658;28;20043;-68
2022/02/23 01:35:22;;;;;;;1.98;0.90;;;18.70;60.20;;;;;;5092621;28;20028;-68
2022/02/23 01:37:47;;;;;;;1.73;0.82;;;18.70;60.20;;;;;;5058198;28;20077;-68
2022/02/23 01:40:13;;;;;;;1.48;1.02;;;18.70;60.20;;;;;;5075140;28;20028;-68
2022/02/23 01:42:39;;;;;;;1.15;0.65;;;18.70;60.20;;;;;;5092874;28;20490;-68
2022/02/23 01:45:05;;;;;;;2.40;0.90;;;18.70;60.30;;;;;;5092720;28;20047;-68
2022/02/23 01:47:31;;;;;;;1.42;0.70;;;18.60;60.20;;;;;;5092395;28;20494;-68
2022/02/23 01:49:57;;;;;;;1.80;0.70;;;18.70;60.40;;;;;;5074484;28;20024;-68
2022/02/23 01:52:25;;;;;;;2.38;0.98;;;18.70;60.30;;;;;;5092520;28;20498;-67
2022/02/23 01:54:52;;;;;;;1.42;0.90;;;18.60;60.20;;;;;;5074601;28;20036;-68
2022/02/23 01:57:18;;;;;;;1.02;0.68;;;18.60;60.30;;;;;;5092620;28;20012;-68
2022/02/23 01:59:43;;;;;;;2.72;0.80;;;18.60;60.40;;;;;;5092408;28;20063;-68
2022/02/23 02:02:09;;;;;;;0.90;0.63;;;18.60;60.30;;;;;;5074534;28;20055;-68
2022/02/23 02:04:35;;;;;;;2.13;0.90;;;18.60;60.30;;;;;;5092247;28;20027;-68
2022/02/23 02:07:00;;;;;;;1.35;0.68;;;18.60;60.40;;;;;;5092402;28;20023;-68
2022/02/23 02:09:26;;;;;;;2.08;0.80;;;18.60;60.40;;;;;;5074499;28;20028;-68
2022/02/23 02:11:51;;;;;;;1.63;0.85;;;18.60;60.40;;;;;;5092457;28;20024;-68
2022/02/23 02:14:17;;;;;;;1.83;0.68;;;18.60;60.50;;;;;;5092311;28;20385;-68
2022/02/23 02:16:43;;;;;;;1.60;0.95;;;18.60;60.50;;;;;;5092113;28;20165;-68
2022/02/23 02:19:08;;;;;;;1.55;0.65;;;18.60;60.50;;;;;;5057497;28;20024;-68
2022/02/23 02:21:56;;;;;;;1.77;0.90;;;18.60;60.50;;;;;;5092258;28;20024;-68
2022/02/23 02:24:29;;;;;;;1.48;0.80;;;18.60;60.50;;;;;;5092356;28;20017;-68
2022/02/23 02:26:55;;;;;;;1.23;1.00;;;18.50;60.50;;;;;;5074248;28;20012;-68
2022/02/23 02:29:21;;;;;;;1.73;0.95;;;18.50;60.50;;;;;;5074347;28;20504;-68
2022/02/23 02:31:47;;;;;;;1.80;0.80;;;18.50;60.50;;;;;;5073935;28;20047;-68
2022/02/23 02:34:13;;;;;;;1.45;0.68;;;18.50;60.50;;;;;;5091909;28;20432;-68
2022/02/23 02:36:39;;;;;;;1.85;1.05;;;18.50;60.50;;;;;;5074043;28;20031;-67
2022/02/23 02:39:06;;;;;;;1.60;0.90;;;18.50;60.60;;;;;;5074175;28;20028;-68
2022/02/23 02:41:32;;;;;;;1.83;0.80;;;18.50;60.60;;;;;;5092000;28;20020;-68
2022/02/23 02:43:58;;;;;;;1.35;0.80;;;18.50;60.70;;;;;;5092310;28;20024;-68
2022/02/23 02:46:23;;;;;;;2.47;1.10;;;18.50;60.70;;;;;;5092295;28;20024;-68
2022/02/23 02:48:49;;;;;;;1.40;0.70;;;18.50;60.70;;;;;;5091613;28;20035;-68
2022/02/23 02:51:15;;;;;;;1.23;0.80;;;18.50;60.70;;;;;;5092002;28;20023;-68
2022/02/23 02:53:40;;;;;;;1.42;0.80;;;18.50;60.70;;;;;;5090726;28;20097;-68
2022/02/23 02:56:06;;;;;;;1.23;0.90;;;18.50;60.80;;;;;;5072802;28;20025;-68
2022/02/23 02:58:31;;;;;;;2.25;1.15;;;18.50;60.70;;;;;;5075593;28;20062;-68
2022/02/23 03:00:57;;;;;;;1.23;0.75;;;18.50;60.70;;;;;;5077144;28;20020;-68
2022/02/23 03:03:22;;;;;;;2.33;0.95;;;18.50;60.80;;;;;;5095696;28;20024;-68
2022/02/23 03:05:48;;;;;;;1.67;0.90;;;18.50;60.80;;;;;;5095778;28;20024;-68
2022/02/23 03:08:14;;;;;;;1.65;0.70;;;18.50;60.80;;;;;;5095665;28;20035;-68
2022/02/23 03:10:40;;;;;;;2.42;1.02;;;18.50;60.80;;;;;;5077667;28;20028;-67
2022/02/23 03:13:07;;;;;;;1.88;1.05;;;18.50;60.80;;;;;;5060772;28;20038;-68
2022/02/23 03:15:32;;;;;;;2.55;0.98;;;18.50;60.80;;;;;;5077320;28;20024;-68
2022/02/23 03:17:58;;;;;;;2.35;0.93;;;18.50;60.90;;;;;;5060515;28;20020;-68
2022/02/23 03:20:24;;;;;;;2.20;0.80;;;18.50;60.80;;;;;;5095638;28;20440;-68
2022/02/23 03:22:49;;;;;;;1.23;0.50;;;18.50;60.80;;;;;;5095284;28;20450;-68
2022/02/23 03:25:15;;;;;;;2.53;0.80;;;18.50;60.80;;;;;;5095941;28;20074;-68
2022/02/23 03:27:41;;;;;;;1.77;0.68;;;18.50;60.90;;;;;;5095189;28;20108;-68
2022/02/23 03:30:07;;;;;;;4.65;1.20;;;18.50;60.90;;;;;;5095486;28;20020;-68
2022/02/23 03:32:33;;;;;;;2.33;0.85;;;18.50;60.90;;;;;;5094707;28;20044;-68
2022/02/23 03:34:58;;;;;;;1.08;0.60;;;18.50;61.00;;;;;;5095090;28;20404;-67
2022/02/23 03:37:24;;;;;;;2.63;1.02;;;18.50;60.90;;;;;;5095220;28;20035;-67
2022/02/23 03:39:49;;;;;;;7.45;1.15;;;18.50;60.90;;;;;;5095069;28;20024;-68
2022/02/23 03:42:16;;;;;;;1.48;0.80;;;18.40;60.90;;;;;;5094895;28;20390;-68
2022/02/23 03:44:41;;;;;;;1.83;0.80;;;18.40;61.00;;;;;;5095022;28;20040;-68
2022/02/23 03:47:08;;;;;;;1.02;0.70;;;18.40;61.00;;;;;;5076727;28;20063;-68
2022/02/23 03:49:34;;;;;;;2.90;1.05;;;18.40;61.00;;;;;;5077100;28;20089;-67
2022/02/23 03:52:00;;;;;;;1.15;0.70;;;18.40;61.00;;;;;;5077074;28;20024;-68
2022/02/23 03:54:26;;;;;;;1.67;0.77;;;18.40;61.00;;;;;;5094485;28;20402;-68
2022/02/23 03:56:51;;;;;;;1.85;0.90;;;18.40;61.00;;;;;;5076784;28;20024;-68
2022/02/23 03:59:17;;;;;;;1.17;0.60;;;18.40;61.10;;;;;;5094933;28;20017;-68
2022/02/23 04:01:45;;;;;;;1.95;0.75;;;18.40;61.10;;;;;;5094223;28;20016;-68
2022/02/23 04:04:11;;;;;;;1.40;0.80;;;18.40;61.10;;;;;;5076869;28;20096;-68
2022/02/23 04:06:36;;;;;;;2.30;0.90;;;18.40;61.10;;;;;;5076468;28;20111;-68
2022/02/23 04:09:04;;;;;;;1.67;0.98;;;18.30;61.00;;;;;;5093371;28;20020;-68
2022/02/23 04:11:29;;;;;;;1.25;1.00;;;18.40;61.10;;;;;;5094545;28;20070;-68
2022/02/23 04:13:55;;;;;;;2.53;0.80;;;18.40;61.10;;;;;;5094415;28;20028;-68
2022/02/23 04:16:21;;;;;;;1.52;0.90;;;18.30;61.10;;;;;;5093924;28;20051;-68
2022/02/23 04:18:46;;;;;;;2.40;0.93;;;18.40;61.80;;;;;;5094378;28;20397;-68
2022/02/23 04:21:12;;;;;;;1.05;0.80;;;18.30;61.20;;;;;;5094460;28;20092;-68
2022/02/23 04:23:38;;;;;;;1.65;0.80;;;18.30;61.20;;;;;;5059610;28;20032;-68
2022/02/23 04:26:04;;;;;;;2.15;0.95;;;18.30;61.20;;;;;;5076303;28;20024;-68
2022/02/23 04:28:31;;;;;;;1.95;0.80;;;18.40;61.20;;;;;;5094346;28;20103;-68
2022/02/23 04:31:00;;;;;;;1.17;0.70;;;18.30;61.20;;;;;;5075963;28;20754;-68
2022/02/23 04:33:26;;;;;;;1.77;0.77;;;18.30;61.20;;;;;;5093908;28;20040;-68
2022/02/23 04:35:51;;;;;;;1.35;0.63;;;18.30;61.20;;;;;;5093884;28;20035;-68
2022/02/23 04:38:17;;;;;;;1.67;0.88;;;18.30;61.20;;;;;;5094006;28;20145;-68
2022/02/23 04:40:43;;;;;;;1.27;0.73;;;18.30;61.20;;;;;;5075895;28;20465;-68
2022/02/23 04:43:10;;;;;;;1.77;0.90;;;18.30;61.20;;;;;;5075569;28;20016;-67
2022/02/23 04:45:35;;;;;;;2.05;0.90;;;18.30;61.20;;;;;;5075799;28;20032;-68
2022/02/23 04:48:01;;;;;;;1.25;0.82;;;18.20;61.20;;;;;;5075731;28;20119;-67
2022/02/23 04:50:27;;;;;;;1.10;0.70;;;18.20;61.20;;;;;;5075739;28;20028;-68
2022/02/23 04:52:52;;;;;;;1.88;1.00;;;18.30;61.20;;;;;;5093541;28;20032;-68
2022/02/23 04:55:18;;;;;;;2.33;0.77;;;18.20;61.20;;;;;;5079005;28;20034;-68
2022/02/23 04:57:43;;;;;;;1.75;0.93;;;18.20;61.20;;;;;;5072994;28;20025;-68
2022/02/23 05:00:10;;;;;;;1.02;0.65;;;18.30;61.30;;;;;;5073207;28;20056;-68
2022/02/23 05:02:35;;;;;;;1.55;0.52;;;18.20;61.30;;;;;;5070782;28;20440;-68
2022/02/23 05:05:01;;;;;;;1.45;0.80;;;18.20;61.20;;;;;;5093393;28;20032;-68
2022/02/23 05:07:27;;;;;;;1.10;0.90;;;18.20;61.30;;;;;;5093629;28;20046;-68
2022/02/23 05:09:53;;;;;;;1.20;0.80;;;18.20;61.30;;;;;;5093482;28;20406;-68
2022/02/23 05:12:18;;;;;;;3.20;1.10;;;18.20;61.30;;;;;;5093019;28;20020;-68
2022/02/23 05:14:44;;;;;;;1.00;0.60;;;18.20;61.30;;;;;;5075086;28;20035;-68
2022/02/23 05:17:11;;;;;;;2.55;1.00;;;18.20;61.40;;;;;;5075224;28;20501;-68
2022/02/23 05:19:37;;;;;;;3.65;0.68;;;18.20;61.30;;;;;;5092939;28;20016;-68
2022/02/23 05:22:03;;;;;;;1.95;0.70;;;18.20;61.30;;;;;;5093074;28;20012;-68
2022/02/23 05:24:29;;;;;;;1.42;0.80;;;18.20;61.30;;;;;;5075070;28;20024;-68
2022/02/23 05:26:58;;;;;;;2.30;0.77;;;18.20;61.40;;;;;;5074713;28;20055;-68
2022/02/23 05:29:24;;;;;;;1.92;0.90;;;18.20;61.40;;;;;;5093150;28;20027;-68
2022/02/23 05:31:50;;;;;;;2.20;0.90;;;18.20;61.50;;;;;;5092901;28;20089;-68
2022/02/23 05:34:15;;;;;;;1.40;0.70;;;18.20;61.50;;;;;;5092878;28;20028;-68
2022/02/23 05:36:41;;;;;;;1.25;0.68;;;18.20;61.50;;;;;;5092811;28;20024;-68
2022/02/23 05:39:07;;;;;;;2.13;0.98;;;18.20;61.50;;;;;;5074561;28;20490;-68
2022/02/23 05:41:32;;;;;;;4.45;1.00;;;18.20;61.50;;;;;;5074620;28;20016;-67
2022/02/23 05:43:58;;;;;;;1.20;0.73;;;18.20;61.60;;;;;;5074678;28;20024;-68
2022/02/23 05:46:23;;;;;;;0.95;0.60;;;18.10;61.40;;;;;;5074777;28;20154;-68
2022/02/23 05:48:49;;;;;;;1.90;0.90;;;18.20;61.50;;;;;;5092705;28;20132;-68
2022/02/23 05:51:38;;;;;;;2.53;0.80;;;18.20;61.60;;;;;;5092643;28;20031;-68
2022/02/23 05:54:04;;;;;;;1.38;0.80;;;18.20;61.60;;;;;;5074453;28;20074;-68
2022/02/23 05:56:30;;;;;;;0.88;0.73;;;18.10;61.70;;;;;;5092269;28;20024;-68
2022/02/23 05:58:55;;;;;;;2.15;0.95;;;18.10;61.60;;;;;;5074434;28;20032;-68
2022/02/23 06:01:21;;;;;;;5.57;0.98;;;18.10;61.60;;;;;;5092498;28;20035;-68
2022/02/23 06:03:46;;;;;;;1.60;0.88;;;18.10;61.60;;;;;;5092480;28;20099;-68
2022/02/23 06:06:12;;;;;;;1.92;1.00;;;18.10;61.60;;;;;;5074581;28;20029;-68
2022/02/23 06:08:38;;;;;;;1.40;0.85;;;18.10;61.60;;;;;;5092616;28;20016;-68
2022/02/23 06:11:05;;;;;;;1.33;1.10;;;18.10;61.60;;;;;;5092031;28;20028;-68
2022/02/23 06:13:30;;;;;;;2.05;0.88;;;18.10;61.60;;;;;;5074249;28;20375;-68
2022/02/23 06:15:56;;;;;;;1.40;0.73;;;18.10;61.70;;;;;;5092165;28;20021;-68
2022/02/23 06:18:22;;;;;;;0.73;0.57;;;18.10;61.70;;;;;;5074541;28;20024;-68
2022/02/23 06:20:47;;;;;;;1.50;0.82;;;18.10;61.70;;;;;;5074390;28;20024;-68
2022/02/23 06:23:13;;;;;;;1.38;1.00;;;18.10;61.70;;;;;;5057573;28;20036;-68
2022/02/23 06:25:39;;;;;;;1.70;0.77;;;18.10;61.70;;;;;;5073961;28;20024;-68
2022/02/23 06:28:05;;;;;;;1.65;0.75;;;18.10;61.70;;;;;;5074288;28;20032;-68
2022/02/23 06:30:30;;;;;;;1.15;0.80;;;18.10;61.70;;;;;;5092400;28;20047;-67
2022/02/23 06:32:56;;;;;;;0.75;0.60;;;18.10;61.80;;;;;;5096013;28;20117;-67
2022/02/23 06:35:22;;;;;;;2.83;0.85;;;18.10;61.70;;;;;;5096395;28;20024;-68
2022/02/23 06:37:47;;;;;;;3.03;0.90;;;18.00;61.70;;;;;;5096090;28;20613;-67
2022/02/23 06:40:13;;;;;;;0.98;0.80;;;18.10;61.80;;;;;;5095909;28;20028;-68
2022/02/23 06:42:39;;;;;;;1.98;0.80;;;18.10;61.80;;;;;;5096311;28;20043;-68
2022/02/23 06:45:06;;;;;;;2.33;0.98;;;18.00;61.70;;;;;;5096066;28;20410;-68
2022/02/23 06:47:31;;;;;;;1.17;0.52;;;18.00;61.70;;;;;;5095244;28;20031;-68
2022/02/23 06:49:57;;;;;;;1.50;0.70;;;18.00;61.70;;;;;;5087346;28;20032;-68
2022/02/23 06:52:23;;;;;;;1.33;0.68;;;18.00;61.80;;;;;;5074585;28;20028;-68
2022/02/23 06:54:49;;;;;;;1.65;0.88;;;18.00;61.80;;;;;;5052422;28;20028;-68
2022/02/23 06:57:14;;;;;;;1.02;0.80;;;18.00;61.90;;;;;;5095339;28;20103;-68
2022/02/23 06:59:40;;;;;;;1.02;0.73;;;18.00;62.90;;;;;;5094948;28;20099;-68
2022/02/23 07:02:09;;;;;;;1.92;1.00;;;18.00;61.80;;;;;;5076650;28;20074;-68
2022/02/23 07:04:35;;;;;;;1.15;0.70;;;18.10;62.00;;;;;;5046295;28;20052;-68
2022/02/23 07:07:00;;;;;;;2.30;0.70;;;18.00;61.90;;;;;;5080095;28;20105;-68
2022/02/23 07:09:26;;;;;;;1.15;0.65;;;18.00;61.90;;;;;;5072235;28;20052;-68
2022/02/23 07:11:52;;;;;;;1.55;0.80;;;18.00;61.90;;;;;;5075370;28;20096;-68
2022/02/23 07:14:18;;;;;;;1.45;0.75;;;18.00;61.90;;;;;;5086814;28;20035;-68
2022/02/23 07:16:43;;;;;;;1.05;0.93;;;18.00;61.90;;;;;;5060523;28;20020;-68
2022/02/23 07:19:09;;;;;;;1.63;0.80;;;18.00;61.90;;;;;;5078115;28;20029;-67
2022/02/23 07:21:35;;;;;;;4.35;0.82;;;18.00;62.00;;;;;;5089484;28;20028;-67
2022/02/23 07:24:01;;;;;;;2.47;0.70;;;18.00;62.00;;;;;;5077888;28;20532;-67
2022/02/23 07:26:27;;;;;;;1.40;0.77;;;18.00;62.00;;;;;;5087734;28;20099;-67
2022/02/23 07:28:53;;;;;;;1.15;0.63;;;18.00;62.00;;;;;;5060820;28;20031;-67
2022/02/23 07:31:18;;;;;;;1.88;0.85;;;18.00;62.00;;;;;;5078101;28;20012;-67
2022/02/23 07:33:44;;;;;;;1.17;0.75;;;18.00;62.00;;;;;;5088277;28;20047;-67
2022/02/23 07:36:10;;;;;;;0.95;0.80;;;18.10;62.00;;;;;;5057017;28;20053;-67
2022/02/23 07:38:40;;;;;;;1.08;0.63;;;18.00;62.00;;;;;;5056934;28;20051;-67
2022/02/23 07:41:06;;;;;;;0.95;0.77;;;18.00;61.90;;;;;;5057667;28;20025;-67
2022/02/23 07:43:33;;;;;;;1.55;1.00;;;18.00;61.90;;;;;;5074775;28;20107;-68
2022/02/23 07:45:59;;;;;;;2.83;1.05;;;18.10;61.80;;;;;;5074816;28;20016;-68
2022/02/23 07:48:25;;;;;;;2.67;1.40;;;18.10;61.90;;;;;;5074584;28;20119;-68
2022/02/23 07:50:51;;;;;;;5.40;1.13;;;18.10;61.80;;;;;;5072045;28;20056;-68
2022/02/23 07:53:16;;;;;;;6.50;1.90;;;18.10;61.90;;;;;;5076628;28;20443;-68
2022/02/23 07:55:42;;;;;;;4.25;1.33;;;18.10;61.90;;;;;;5076637;28;20069;-68
2022/02/23 07:58:08;;;;;;;7.70;1.70;;;18.10;61.80;;;;;;5082018;28;20031;-68
2022/02/23 08:00:35;;;;;;;4.55;2.15;;;18.10;61.80;;;;;;5074460;28;20394;-68
2022/02/23 08:03:00;;;;;;;4.15;1.40;;;18.10;61.80;;;;;;5056694;28;20028;-68
2022/02/23 08:05:26;;;;;;;3.60;1.63;;;18.10;61.80;;;;;;5074449;28;20024;-68
2022/02/23 08:07:52;;;;;;;5.93;1.58;;;18.10;61.80;;;;;;5074283;28;20524;-68
2022/02/23 08:10:18;;;;;;;3.60;1.50;;;18.20;61.80;;;;;;5056575;28;20062;-68
2022/02/23 08:12:44;;;;;;;4.50;1.70;;;18.10;61.80;;;;;;5056461;28;20029;-68
2022/02/23 08:20:39;;;;;;;4.00;1.50;;;18.20;61.80;;;;;;5058877;28;20040;-68
2022/02/23 08:23:05;;;;;;;2.72;1.17;;;18.10;61.80;;;;;;5073876;28;20021;-68
2022/02/23 08:25:30;;;;;;;3.38;1.40;;;18.20;61.80;;;;;;5073975;28;20016;-68
2022/02/23 08:27:58;;;;;;;4.13;1.85;;;18.20;61.80;;;;;;5074157;28;20443;-68
2022/02/23 08:30:23;;;;;;;4.85;1.63;;;18.20;61.70;;;;;;5073935;28;20021;-68
2022/02/23 08:32:49;;;;;;;5.15;1.60;;;18.20;61.80;;;;;;5060217;28;20075;-68
2022/02/23 08:35:15;;;;;;;6.97;1.70;;;18.20;61.70;;;;;;5053402;28;20029;-68
2022/02/23 08:37:40;;;;;;;3.65;1.42;;;18.20;61.70;;;;;;5052623;28;20029;-68
2022/02/23 08:40:08;;;;;;;2.80;1.10;;;18.20;61.70;;;;;;5053704;28;20021;-68
2022/02/23 08:42:33;;;;;;;5.00;1.40;;;18.20;61.70;;;;;;5053751;28;20056;-68
2022/02/23 08:44:59;;;;;;;3.97;1.38;;;18.30;61.80;;;;;;5053601;28;20104;-68
2022/02/23 08:47:26;;;;;;;4.40;1.67;;;18.30;61.80;;;;;;5053664;28;20028;-68
2022/02/23 08:49:52;;;;;;;4.28;1.50;;;18.30;61.80;;;;;;5060430;28;20032;-68
2022/02/23 08:52:18;;;;;;;4.07;1.38;;;18.20;61.70;;;;;;5073236;28;20025;-68
2022/02/23 08:54:43;;;;;;;4.13;1.42;;;18.20;61.70;;;;;;5071730;28;20367;-68
2022/02/23 08:57:09;;;;;;;5.43;1.60;;;18.30;61.70;;;;;;5068904;28;20025;-68
2022/02/23 08:59:35;;;;;;;3.50;1.63;;;18.30;61.80;;;;;;5053447;28;20455;-68
2022/02/23 09:02:02;;;;;;;2.97;1.40;;;18.30;61.70;;;;;;5052190;28;20029;-68
2022/02/23 09:04:28;;;;;;;3.85;1.60;;;18.30;61.70;;;;;;5051719;28;20091;-68
2022/02/23 09:06:54;;;;;;;5.82;1.40;;;18.30;61.80;;;;;;5052146;28;20035;-68
2022/02/23 09:09:20;;;;;;;3.95;1.48;;;18.30;61.80;;;;;;5051934;28;20029;-68
2022/02/23 09:11:47;;;;;;;3.17;1.40;;;18.30;61.70;;;;;;5051988;28;20071;-68
2022/02/23 09:14:14;;;;;;;3.15;1.10;;;18.30;61.70;;;;;;5052908;28;20021;-68
2022/02/23 09:16:40;;;;;;;3.75;1.30;;;18.30;61.70;;;;;;5051903;28;20509;-68
2022/02/23 09:19:06;;;;;;;3.38;1.15;;;18.30;61.70;;;;;;5052620;28;20037;-68
2022/02/23 09:21:32;;;;;;;2.30;1.05;;;18.30;61.70;;;;;;5053006;28;20017;-68
2022/02/23 09:23:59;;;;;;;4.45;1.15;;;18.30;61.60;;;;;;5053108;28;20496;-68
2022/02/23 09:26:25;;;;;;;4.18;1.50;;;18.30;61.60;;;;;;5052605;28;20108;-68
2022/02/23 09:28:50;;;;;;;4.60;1.40;;;18.30;61.70;;;;;;5052867;28;20567;-68
2022/02/23 09:31:17;;;;;;;4.13;1.35;;;18.30;61.70;;;;;;5053284;28;20108;-68
2022/02/23 09:33:43;;;;;;;3.13;1.33;;;18.30;61.60;;;;;;5072397;28;20108;-68
2022/02/23 09:36:09;;;;;;;1.50;1.00;;;18.30;61.60;;;;;;5054661;28;20044;-68
2022/02/23 09:38:35;;;;;;;3.33;1.20;;;18.30;61.60;;;;;;5054996;28;20063;-68
2022/02/23 09:41:04;;;;;;;2.72;1.33;;;18.30;61.60;;;;;;5072661;28;20044;-68
2022/02/23 09:43:30;;;;;;;3.17;1.10;;;18.30;61.60;;;;;;5055017;28;20089;-68
2022/02/23 09:45:56;;;;;;;3.67;1.40;;;18.30;61.70;;;;;;5054902;28;20482;-68
2022/02/23 09:48:23;;;;;;;2.25;1.23;;;18.30;61.60;;;;;;5072058;28;20024;-68
2022/02/23 09:50:50;;;;;;;3.47;1.10;;;18.40;61.60;;;;;;5069705;28;20413;-68
2022/02/23 09:53:16;;;;;;;3.17;1.20;;;18.40;61.60;;;;;;5074891;28;20032;-68
2022/02/23 09:55:42;;;;;;;2.15;1.10;;;18.40;61.60;;;;;;5057941;28;20021;-68
2022/02/23 09:58:07;;;;;;;3.50;1.20;;;18.40;61.60;;;;;;5080230;28;20021;-68
2022/02/23 10:00:33;;;;;;;2.72;1.20;;;18.40;61.60;;;;;;5054579;28;20054;-68
2022/02/23 10:02:59;;;;;;;5.25;1.27;;;18.40;61.60;;;;;;5072084;28;20059;-68
2022/02/23 10:05:24;;;;;;;2.55;1.08;;;18.40;61.60;;;;;;5071421;28;20478;-68
2022/02/23 10:07:50;;;;;;;3.08;1.23;;;18.40;61.60;;;;;;5072113;28;20029;-68
2022/02/23 10:10:37;;;;;;;2.00;1.08;;;18.40;61.60;;;;;;5054407;28;20101;-68
2022/02/23 10:13:03;;;;;;;4.05;1.15;;;18.40;61.50;;;;;;5072288;28;20025;-68
2022/02/23 10:15:37;;;;;;;2.38;1.30;;;18.40;61.60;;;;;;5053973;28;20116;-68
2022/02/23 10:18:10;;;;;;;2.67;1.27;;;18.40;61.60;;;;;;5054941;28;20103;-68
2022/02/23 10:20:39;;;;;;;1.98;0.90;;;18.40;61.60;;;;;;5054630;28;20144;-68
2022/02/23 10:23:15;;;;;;;2.67;1.13;;;18.40;61.60;;;;;;5072032;28;20021;-68
2022/02/23 10:25:43;;;;;;;3.13;1.40;;;18.40;61.50;;;;;;5055366;28;20055;-68
2022/02/23 10:28:10;;;;;;;2.50;0.80;;;18.40;61.50;;;;;;5072160;28;20027;-68
2022/02/23 10:30:50;;;;;;;2.13;1.15;;;18.40;61.60;;;;;;5054593;28;20546;-68
2022/02/23 10:33:30;;;;;;;2.63;1.13;;;18.40;61.50;;;;;;5037968;28;20506;-68
2022/02/23 10:35:55;;;;;;;1.35;0.60;;;18.40;61.50;;;;;;5072164;28;20052;-68
2022/02/23 10:38:31;;;;;;;1.75;1.10;;;18.40;61.60;;;;;;5071771;28;20053;-68
2022/02/23 10:41:00;;;;;;;1.23;1.00;;;18.40;61.50;;;;;;5054863;28;20016;-68
2022/02/23 10:43:36;;;;;;;2.67;0.88;;;18.40;61.50;;;;;;5071709;28;20074;-68
2022/02/23 10:46:02;;;;;;;2.53;1.00;;;18.40;61.50;;;;;;5055292;28;20025;-68
2022/02/23 10:48:39;;;;;;;1.73;0.95;;;18.40;61.50;;;;;;5071731;28;20036;-68
2022/02/23 10:51:06;;;;;;;2.28;1.23;;;18.40;61.50;;;;;;5089301;28;20032;-68
2022/02/23 10:53:32;;;;;;;0.82;0.73;;;18.40;61.50;;;;;;5091981;28;20020;-68
2022/02/23 10:55:58;;;;;;;1.73;1.02;;;18.40;61.40;;;;;;5074188;28;20034;-68
2022/02/23 10:58:24;;;;;;;1.42;0.80;;;18.40;61.40;;;;;;5077192;28;20021;-68
2022/02/23 11:00:51;;;;;;;1.25;0.77;;;18.40;61.40;;;;;;5071645;28;20432;-68
2022/02/23 11:03:18;;;;;;;2.53;1.00;;;18.40;61.40;;;;;;5053870;28;20017;-68
2022/02/23 11:05:51;;;;;;;2.42;0.90;;;18.40;61.30;;;;;;5054264;28;20029;-68
2022/02/23 11:08:18;;;;;;;1.70;0.70;;;18.40;61.30;;;;;;5053823;28;20119;-68
2022/02/23 11:10:44;;;;;;;3.38;0.80;;;18.40;61.40;;;;;;5071867;28;20033;-68
2022/02/23 11:13:15;;;;;;;1.88;0.73;;;18.50;61.40;;;;;;5053718;28;20024;-68
2022/02/23 11:15:46;;;;;;;2.25;1.00;;;18.40;61.30;;;;;;5071202;28;20024;-68
2022/02/23 11:18:16;;;;;;;2.03;0.98;;;18.50;61.30;;;;;;5056712;28;20020;-68
2022/02/23 11:20:45;;;;;;;1.30;0.70;;;18.50;61.30;;;;;;5057721;28;20028;-68
2022/02/23 11:23:18;;;;;;;1.20;0.82;;;18.50;61.40;;;;;;5075146;28;20020;-68
2022/02/23 11:25:46;;;;;;;2.13;1.05;;;18.50;61.30;;;;;;5075268;28;20028;-68
2022/02/23 11:28:29;;;;;;;1.42;0.80;;;18.40;61.20;;;;;;5057247;28;20497;-68
2022/02/23 11:30:55;;;;;;;;;;;18.50;61.30;;;;;;5057659;28;20119;-68
2022/02/23 11:33:46;;;;;;;1.98;0.95;;;18.40;61.30;;;;;;5074992;28;19999;-68
2022/02/23 11:36:34;;;;;;;2.92;1.02;;;18.40;61.30;;;;;;4993399;28;20030;-68
2022/02/23 11:39:09;;;;;;;1.75;0.82;;;18.40;61.50;;;;;;4979062;28;20026;-68
2022/02/23 11:41:36;;;;;;;1.55;1.00;;;18.40;61.50;;;;;;4977118;28;20046;-68
2022/02/23 11:44:08;;;;;;;1.50;0.82;;;18.40;61.40;;;;;;4993379;28;20022;-68
2022/02/23 11:46:54;;;;;;;2.15;0.95;;;18.40;61.30;;;;;;4993262;28;20048;-68
2022/02/23 11:49:25;;;;;;;0.75;0.60;;;18.40;61.30;;;;;;4996030;28;20033;-68
2022/02/23 11:52:13;;;;;;;1.45;0.80;;;18.40;61.30;;;;;;5012797;28;20041;-68
2022/02/23 11:54:47;;;;;;;2.20;0.88;;;18.50;61.30;;;;;;5012736;28;20042;-68
2022/02/23 11:57:38;;;;;;;3.08;0.95;;;18.40;61.30;;;;;;5008022;28;20034;-68
2022/02/23 12:00:07;;;;;;;1.20;0.65;;;18.40;61.20;;;;;;4993056;28;20038;-68
2022/02/23 12:02:33;;;;;;;1.50;0.70;;;18.40;61.20;;;;;;4992842;28;20033;-68
2022/02/23 12:04:59;;;;;;;1.90;0.93;;;18.40;61.20;;;;;;4993167;28;20043;-68
2022/02/23 12:07:25;;;;;;;2.20;0.75;;;18.40;61.20;;;;;;4992900;28;20045;-68
2022/02/23 12:10:00;;;;;;;1.83;0.70;;;18.50;61.30;;;;;;4992998;28;20033;-68
2022/02/23 12:12:29;;;;;;;1.27;0.65;;;18.50;61.20;;;;;;5008797;28;20491;-68
2022/02/23 12:14:55;;;;;;;1.60;0.70;;;18.50;61.30;;;;;;5073928;28;20103;-68
2022/02/23 12:17:39;;;;;;;1.48;0.90;;;18.50;61.30;;;;;;5039981;28;20498;-68
2022/02/23 12:20:05;;;;;;;1.42;0.70;;;18.40;61.00;;;;;;5074607;28;20031;-68
2022/02/23 12:22:36;;;;;;;1.77;0.75;;;18.40;61.30;;;;;;5073839;28;20017;-68
2022/02/23 12:25:04;;;;;;;1.50;0.80;;;18.50;61.20;;;;;;5056333;28;20024;-68
2022/02/23 12:27:30;;;;;;;0.88;0.80;;;18.50;61.20;;;;;;5039860;28;20104;-68
2022/02/23 12:29:55;;;;;;;1.58;0.90;;;18.50;61.20;;;;;;5073169;28;20135;-68
2022/02/23 12:32:24;;;;;;;1.90;1.23;;;18.50;61.10;;;;;;5055744;28;20036;-68
2022/02/23 12:34:52;;;;;;;1.58;0.85;;;18.50;61.10;;;;;;5056371;28;20020;-68
2022/02/23 12:37:18;;;;;;;1.45;0.90;;;18.50;61.10;;;;;;5039755;28;20016;-68
2022/02/23 12:39:43;;;;;;;1.58;0.70;;;18.50;61.20;;;;;;5022580;28;20029;-68
2022/02/23 12:42:11;;;;;;;1.65;0.90;;;18.50;61.10;;;;;;5039058;28;20025;-68
2022/02/23 12:44:38;;;;;;;2.75;0.90;;;18.50;61.10;;;;;;5073626;28;20031;-68
2022/02/23 12:47:05;;;;;;;0.75;0.63;;;18.50;61.10;;;;;;5039405;28;20108;-68
2022/02/23 12:49:32;;;;;;;0.82;0.65;;;18.50;61.10;;;;;;5060115;28;20081;-68
2022/02/23 12:51:57;;;;;;;1.05;0.70;;;18.40;61.00;;;;;;5075772;28;20045;-68